sensor_id;sensor_type;location;lat;lon;timestamp;P1;durP1;ratioP1;P2;durP2;ratioP2
64199;SDS011;50516;52.272;5.136;2022-09-09T00:06:49;4.50;;;1.65;;
64199;SDS011;50516;52.272;5.136;2022-09-09T00:09:19;3.22;;;1.80;;
64199;SDS011;50516;52.272;5.136;2022-09-09T00:14:51;3.35;;;1.60;;
64199;SDS011;50516;52.272;5.136;2022-09-09T00:17:30;3.47;;;1.67;;
64199;SDS011;50516;52.272;5.136;2022-09-09T00:22:34;4.10;;;1.90;;
64199;SDS011;50516;52.272;5.136;2022-09-09T00:25:11;3.55;;;1.85;;
64199;SDS011;50516;52.272;5.136;2022-09-09T00:27:45;2.92;;;1.25;;
64199;SDS011;50516;52.272;5.136;2022-09-09T00:30:17;3.42;;;1.52;;
64199;SDS011;50516;52.272;5.136;2022-09-09T00:32:49;4.00;;;2.00;;
64199;SDS011;50516;52.272;5.136;2022-09-09T00:35:23;3.35;;;1.90;;
64199;SDS011;50516;52.272;5.136;2022-09-09T00:37:54;4.28;;;1.92;;
64199;SDS011;50516;52.272;5.136;2022-09-09T00:45:59;6.00;;;2.30;;
64199;SDS011;50516;52.272;5.136;2022-09-09T00:48:31;9.45;;;2.80;;
64199;SDS011;50516;52.272;5.136;2022-09-09T00:51:07;5.85;;;2.30;;
64199;SDS011;50516;52.272;5.136;2022-09-09T00:56:37;5.00;;;2.40;;
64199;SDS011;50516;52.272;5.136;2022-09-09T01:01:35;5.40;;;2.40;;
64199;SDS011;50516;52.272;5.136;2022-09-09T01:04:01;8.98;;;2.90;;
64199;SDS011;50516;52.272;5.136;2022-09-09T01:06:36;5.18;;;2.45;;
64199;SDS011;50516;52.272;5.136;2022-09-09T01:12:24;6.13;;;2.60;;
64199;SDS011;50516;52.272;5.136;2022-09-09T01:17:31;6.70;;;3.25;;
64199;SDS011;50516;52.272;5.136;2022-09-09T01:22:40;8.20;;;3.58;;
64199;SDS011;50516;52.272;5.136;2022-09-09T01:25:28;5.35;;;2.90;;
64199;SDS011;50516;52.272;5.136;2022-09-09T01:28:19;7.65;;;3.20;;
64199;SDS011;50516;52.272;5.136;2022-09-09T01:30:50;5.60;;;2.80;;
64199;SDS011;50516;52.272;5.136;2022-09-09T01:33:16;6.93;;;3.50;;
64199;SDS011;50516;52.272;5.136;2022-09-09T01:38:11;6.32;;;3.33;;
64199;SDS011;50516;52.272;5.136;2022-09-09T01:40:38;6.95;;;3.00;;
64199;SDS011;50516;52.272;5.136;2022-09-09T01:43:04;8.57;;;3.60;;
64199;SDS011;50516;52.272;5.136;2022-09-09T01:45:30;9.35;;;3.05;;
64199;SDS011;50516;52.272;5.136;2022-09-09T01:47:55;7.25;;;3.72;;
64199;SDS011;50516;52.272;5.136;2022-09-09T01:50:21;6.63;;;3.42;;
64199;SDS011;50516;52.272;5.136;2022-09-09T01:52:48;7.22;;;3.50;;
64199;SDS011;50516;52.272;5.136;2022-09-09T01:55:16;6.75;;;3.38;;
64199;SDS011;50516;52.272;5.136;2022-09-09T02:00:34;7.40;;;3.72;;
64199;SDS011;50516;52.272;5.136;2022-09-09T02:03:08;8.35;;;3.75;;
64199;SDS011;50516;52.272;5.136;2022-09-09T02:05:55;10.55;;;4.15;;
64199;SDS011;50516;52.272;5.136;2022-09-09T02:08:25;7.38;;;3.80;;
64199;SDS011;50516;52.272;5.136;2022-09-09T02:13:37;6.28;;;3.63;;
64199;SDS011;50516;52.272;5.136;2022-09-09T02:16:08;5.30;;;3.83;;
64199;SDS011;50516;52.272;5.136;2022-09-09T02:21:11;11.00;;;4.70;;
64199;SDS011;50516;52.272;5.136;2022-09-09T02:23:39;7.28;;;4.25;;
64199;SDS011;50516;52.272;5.136;2022-09-09T02:26:07;5.93;;;3.78;;
64199;SDS011;50516;52.272;5.136;2022-09-09T02:28:38;5.75;;;3.88;;
64199;SDS011;50516;52.272;5.136;2022-09-09T02:31:06;7.15;;;4.38;;
64199;SDS011;50516;52.272;5.136;2022-09-09T02:33:40;9.45;;;4.40;;
64199;SDS011;50516;52.272;5.136;2022-09-09T02:36:09;6.97;;;4.20;;
64199;SDS011;50516;52.272;5.136;2022-09-09T02:38:38;10.13;;;4.40;;
64199;SDS011;50516;52.272;5.136;2022-09-09T02:41:07;8.52;;;4.82;;
64199;SDS011;50516;52.272;5.136;2022-09-09T02:43:33;7.78;;;4.82;;
64199;SDS011;50516;52.272;5.136;2022-09-09T02:49:10;8.57;;;4.85;;
64199;SDS011;50516;52.272;5.136;2022-09-09T02:54:34;7.50;;;5.35;;
64199;SDS011;50516;52.272;5.136;2022-09-09T02:57:06;7.35;;;5.03;;
64199;SDS011;50516;52.272;5.136;2022-09-09T02:59:35;8.65;;;5.53;;
64199;SDS011;50516;52.272;5.136;2022-09-09T03:02:01;10.70;;;6.25;;
64199;SDS011;50516;52.272;5.136;2022-09-09T03:04:27;10.27;;;6.85;;
64199;SDS011;50516;52.272;5.136;2022-09-09T03:06:53;7.90;;;5.55;;
64199;SDS011;50516;52.272;5.136;2022-09-09T03:09:18;12.57;;;5.88;;
64199;SDS011;50516;52.272;5.136;2022-09-09T03:11:44;12.07;;;6.60;;
64199;SDS011;50516;52.272;5.136;2022-09-09T03:14:09;16.20;;;7.13;;
64199;SDS011;50516;52.272;5.136;2022-09-09T03:16:36;9.93;;;6.15;;
64199;SDS011;50516;52.272;5.136;2022-09-09T03:19:01;12.25;;;6.43;;
64199;SDS011;50516;52.272;5.136;2022-09-09T03:21:27;9.50;;;5.85;;
64199;SDS011;50516;52.272;5.136;2022-09-09T03:23:52;9.57;;;5.65;;
64199;SDS011;50516;52.272;5.136;2022-09-09T03:26:17;7.95;;;5.93;;
64199;SDS011;50516;52.272;5.136;2022-09-09T03:28:43;9.73;;;5.70;;
64199;SDS011;50516;52.272;5.136;2022-09-09T03:31:09;11.23;;;6.40;;
64199;SDS011;50516;52.272;5.136;2022-09-09T03:33:38;10.98;;;5.80;;
64199;SDS011;50516;52.272;5.136;2022-09-09T03:36:06;10.75;;;5.70;;
64199;SDS011;50516;52.272;5.136;2022-09-09T03:38:33;10.60;;;6.13;;
64199;SDS011;50516;52.272;5.136;2022-09-09T03:40:58;9.27;;;6.10;;
64199;SDS011;50516;52.272;5.136;2022-09-09T03:43:25;10.30;;;6.15;;
64199;SDS011;50516;52.272;5.136;2022-09-09T03:45:51;10.75;;;5.53;;
64199;SDS011;50516;52.272;5.136;2022-09-09T03:48:18;9.40;;;5.57;;
64199;SDS011;50516;52.272;5.136;2022-09-09T03:50:47;9.50;;;6.40;;
64199;SDS011;50516;52.272;5.136;2022-09-09T03:53:14;9.13;;;5.45;;
64199;SDS011;50516;52.272;5.136;2022-09-09T03:55:43;10.98;;;5.53;;
64199;SDS011;50516;52.272;5.136;2022-09-09T03:58:10;9.57;;;5.45;;
64199;SDS011;50516;52.272;5.136;2022-09-09T04:00:36;8.10;;;5.32;;
64199;SDS011;50516;52.272;5.136;2022-09-09T04:03:01;12.98;;;6.43;;
64199;SDS011;50516;52.272;5.136;2022-09-09T04:05:27;7.97;;;5.38;;
64199;SDS011;50516;52.272;5.136;2022-09-09T04:07:54;8.38;;;5.80;;
64199;SDS011;50516;52.272;5.136;2022-09-09T04:10:20;11.23;;;5.90;;
64199;SDS011;50516;52.272;5.136;2022-09-09T04:12:46;10.55;;;5.97;;
64199;SDS011;50516;52.272;5.136;2022-09-09T04:15:11;7.90;;;5.15;;
64199;SDS011;50516;52.272;5.136;2022-09-09T04:17:36;7.32;;;5.50;;
64199;SDS011;50516;52.272;5.136;2022-09-09T04:20:02;10.15;;;5.72;;
64199;SDS011;50516;52.272;5.136;2022-09-09T04:22:27;8.70;;;4.97;;
64199;SDS011;50516;52.272;5.136;2022-09-09T04:24:53;9.10;;;4.82;;
64199;SDS011;50516;52.272;5.136;2022-09-09T04:27:18;7.28;;;5.03;;
64199;SDS011;50516;52.272;5.136;2022-09-09T04:29:43;8.18;;;4.72;;
64199;SDS011;50516;52.272;5.136;2022-09-09T04:32:09;10.13;;;5.10;;
64199;SDS011;50516;52.272;5.136;2022-09-09T04:34:34;10.07;;;5.32;;
64199;SDS011;50516;52.272;5.136;2022-09-09T04:36:59;11.23;;;5.25;;
64199;SDS011;50516;52.272;5.136;2022-09-09T04:39:26;10.10;;;5.03;;
64199;SDS011;50516;52.272;5.136;2022-09-09T04:41:51;8.63;;;4.82;;
64199;SDS011;50516;52.272;5.136;2022-09-09T04:44:16;10.45;;;4.95;;
64199;SDS011;50516;52.272;5.136;2022-09-09T04:46:42;8.57;;;4.25;;
64199;SDS011;50516;52.272;5.136;2022-09-09T04:49:07;5.75;;;3.95;;
64199;SDS011;50516;52.272;5.136;2022-09-09T04:51:32;13.13;;;4.90;;
64199;SDS011;50516;52.272;5.136;2022-09-09T04:53:58;8.20;;;4.55;;
64199;SDS011;50516;52.272;5.136;2022-09-09T04:56:23;8.63;;;4.32;;
64199;SDS011;50516;52.272;5.136;2022-09-09T04:58:51;9.35;;;4.20;;
64199;SDS011;50516;52.272;5.136;2022-09-09T05:01:18;13.93;;;4.95;;
64199;SDS011;50516;52.272;5.136;2022-09-09T05:03:45;6.50;;;4.28;;
64199;SDS011;50516;52.272;5.136;2022-09-09T05:06:12;8.77;;;4.85;;
64199;SDS011;50516;52.272;5.136;2022-09-09T05:08:39;7.63;;;4.03;;
64199;SDS011;50516;52.272;5.136;2022-09-09T05:13:41;7.93;;;4.82;;
64199;SDS011;50516;52.272;5.136;2022-09-09T05:16:06;7.55;;;4.03;;
64199;SDS011;50516;52.272;5.136;2022-09-09T05:18:32;8.38;;;4.40;;
64199;SDS011;50516;52.272;5.136;2022-09-09T05:21:00;10.05;;;4.30;;
64199;SDS011;50516;52.272;5.136;2022-09-09T05:23:25;9.93;;;4.32;;
64199;SDS011;50516;52.272;5.136;2022-09-09T05:25:57;9.13;;;4.60;;
64199;SDS011;50516;52.272;5.136;2022-09-09T05:28:26;7.10;;;3.70;;
64199;SDS011;50516;52.272;5.136;2022-09-09T05:31:02;11.80;;;4.35;;
64199;SDS011;50516;52.272;5.136;2022-09-09T05:33:30;8.30;;;4.40;;
64199;SDS011;50516;52.272;5.136;2022-09-09T05:36:16;7.57;;;4.50;;
64199;SDS011;50516;52.272;5.136;2022-09-09T05:38:43;10.27;;;4.00;;
64199;SDS011;50516;52.272;5.136;2022-09-09T05:41:09;8.55;;;4.13;;
64199;SDS011;50516;52.272;5.136;2022-09-09T05:43:36;10.20;;;4.43;;
64199;SDS011;50516;52.272;5.136;2022-09-09T05:48:33;12.20;;;4.10;;
64199;SDS011;50516;52.272;5.136;2022-09-09T05:51:00;11.13;;;4.97;;
64199;SDS011;50516;52.272;5.136;2022-09-09T05:53:27;8.43;;;3.95;;
64199;SDS011;50516;52.272;5.136;2022-09-09T05:58:29;11.63;;;4.30;;
64199;SDS011;50516;52.272;5.136;2022-09-09T06:01:29;8.73;;;4.10;;
64199;SDS011;50516;52.272;5.136;2022-09-09T06:03:51;5.75;;;3.70;;
64199;SDS011;50516;52.272;5.136;2022-09-09T06:06:18;9.32;;;3.72;;
64199;SDS011;50516;52.272;5.136;2022-09-09T06:08:46;7.75;;;5.00;;
64199;SDS011;50516;52.272;5.136;2022-09-09T06:11:13;7.80;;;4.18;;
64199;SDS011;50516;52.272;5.136;2022-09-09T06:13:43;6.72;;;3.65;;
64199;SDS011;50516;52.272;5.136;2022-09-09T06:16:13;11.88;;;4.15;;
64199;SDS011;50516;52.272;5.136;2022-09-09T06:18:40;11.70;;;4.00;;
64199;SDS011;50516;52.272;5.136;2022-09-09T06:21:14;7.38;;;3.55;;
64199;SDS011;50516;52.272;5.136;2022-09-09T06:23:41;9.80;;;3.72;;
64199;SDS011;50516;52.272;5.136;2022-09-09T06:26:09;13.93;;;4.97;;
64199;SDS011;50516;52.272;5.136;2022-09-09T06:28:36;13.52;;;4.97;;
64199;SDS011;50516;52.272;5.136;2022-09-09T06:31:06;10.23;;;3.67;;
64199;SDS011;50516;52.272;5.136;2022-09-09T06:33:34;8.80;;;3.80;;
64199;SDS011;50516;52.272;5.136;2022-09-09T06:36:03;15.48;;;4.78;;
64199;SDS011;50516;52.272;5.136;2022-09-09T06:38:29;9.48;;;3.55;;
64199;SDS011;50516;52.272;5.136;2022-09-09T06:40:55;7.18;;;3.90;;
64199;SDS011;50516;52.272;5.136;2022-09-09T06:43:22;9.82;;;3.65;;
64199;SDS011;50516;52.272;5.136;2022-09-09T06:45:52;13.00;;;4.18;;
64199;SDS011;50516;52.272;5.136;2022-09-09T06:48:21;10.80;;;3.42;;
64199;SDS011;50516;52.272;5.136;2022-09-09T06:50:47;11.30;;;3.85;;
64199;SDS011;50516;52.272;5.136;2022-09-09T06:53:12;12.65;;;3.88;;
64199;SDS011;50516;52.272;5.136;2022-09-09T06:55:41;12.95;;;3.90;;
64199;SDS011;50516;52.272;5.136;2022-09-09T06:58:09;12.43;;;4.20;;
64199;SDS011;50516;52.272;5.136;2022-09-09T07:00:34;8.75;;;3.40;;
64199;SDS011;50516;52.272;5.136;2022-09-09T07:03:02;9.13;;;3.38;;
64199;SDS011;50516;52.272;5.136;2022-09-09T07:05:28;12.55;;;3.35;;
64199;SDS011;50516;52.272;5.136;2022-09-09T07:07:53;12.27;;;4.00;;
64199;SDS011;50516;52.272;5.136;2022-09-09T07:10:18;15.82;;;4.18;;
64199;SDS011;50516;52.272;5.136;2022-09-09T07:12:44;10.88;;;3.60;;
64199;SDS011;50516;52.272;5.136;2022-09-09T07:15:09;9.82;;;3.50;;
64199;SDS011;50516;52.272;5.136;2022-09-09T07:17:35;12.95;;;4.50;;
64199;SDS011;50516;52.272;5.136;2022-09-09T07:20:01;10.77;;;4.13;;
64199;SDS011;50516;52.272;5.136;2022-09-09T07:22:29;11.27;;;3.47;;
64199;SDS011;50516;52.272;5.136;2022-09-09T07:24:54;9.45;;;3.42;;
64199;SDS011;50516;52.272;5.136;2022-09-09T07:27:19;14.63;;;3.50;;
64199;SDS011;50516;52.272;5.136;2022-09-09T07:29:45;7.38;;;2.97;;
64199;SDS011;50516;52.272;5.136;2022-09-09T07:32:10;10.07;;;3.70;;
64199;SDS011;50516;52.272;5.136;2022-09-09T07:34:36;14.35;;;4.75;;
64199;SDS011;50516;52.272;5.136;2022-09-09T07:37:01;12.68;;;4.38;;
64199;SDS011;50516;52.272;5.136;2022-09-09T07:39:27;17.55;;;4.38;;
64199;SDS011;50516;52.272;5.136;2022-09-09T07:41:52;10.13;;;3.63;;
64199;SDS011;50516;52.272;5.136;2022-09-09T07:44:21;10.65;;;3.70;;
64199;SDS011;50516;52.272;5.136;2022-09-09T07:46:47;13.10;;;4.53;;
64199;SDS011;50516;52.272;5.136;2022-09-09T07:49:13;11.32;;;3.45;;
64199;SDS011;50516;52.272;5.136;2022-09-09T07:51:40;10.68;;;4.00;;
64199;SDS011;50516;52.272;5.136;2022-09-09T07:54:08;9.60;;;3.88;;
64199;SDS011;50516;52.272;5.136;2022-09-09T07:56:36;14.07;;;4.70;;
64199;SDS011;50516;52.272;5.136;2022-09-09T07:59:02;16.05;;;4.43;;
64199;SDS011;50516;52.272;5.136;2022-09-09T08:01:51;8.95;;;3.67;;
64199;SDS011;50516;52.272;5.136;2022-09-09T08:04:19;10.35;;;3.88;;
64199;SDS011;50516;52.272;5.136;2022-09-09T08:06:52;8.63;;;3.60;;
64199;SDS011;50516;52.272;5.136;2022-09-09T08:09:20;15.82;;;4.60;;
64199;SDS011;50516;52.272;5.136;2022-09-09T08:11:45;12.30;;;5.07;;
64199;SDS011;50516;52.272;5.136;2022-09-09T08:14:11;18.38;;;5.43;;
64199;SDS011;50516;52.272;5.136;2022-09-09T08:16:38;10.70;;;4.25;;
64199;SDS011;50516;52.272;5.136;2022-09-09T08:19:12;13.10;;;4.43;;
64199;SDS011;50516;52.272;5.136;2022-09-09T08:21:40;13.27;;;4.20;;
64199;SDS011;50516;52.272;5.136;2022-09-09T08:24:06;18.15;;;4.05;;
64199;SDS011;50516;52.272;5.136;2022-09-09T08:26:33;14.38;;;4.38;;
64199;SDS011;50516;52.272;5.136;2022-09-09T08:29:01;11.60;;;3.80;;
64199;SDS011;50516;52.272;5.136;2022-09-09T08:31:29;12.05;;;3.80;;
64199;SDS011;50516;52.272;5.136;2022-09-09T08:33:59;13.25;;;4.70;;
64199;SDS011;50516;52.272;5.136;2022-09-09T08:36:27;11.93;;;4.28;;
64199;SDS011;50516;52.272;5.136;2022-09-09T08:38:54;14.02;;;4.88;;
64199;SDS011;50516;52.272;5.136;2022-09-09T08:41:35;11.65;;;4.30;;
64199;SDS011;50516;52.272;5.136;2022-09-09T08:52:16;9.52;;;3.67;;
64199;SDS011;50516;52.272;5.136;2022-09-09T08:54:46;13.65;;;4.80;;
64199;SDS011;50516;52.272;5.136;2022-09-09T08:57:14;8.60;;;3.28;;
64199;SDS011;50516;52.272;5.136;2022-09-09T08:59:44;12.50;;;3.75;;
64199;SDS011;50516;52.272;5.136;2022-09-09T09:02:18;11.55;;;4.00;;
64199;SDS011;50516;52.272;5.136;2022-09-09T09:07:42;8.15;;;3.83;;
64199;SDS011;50516;52.272;5.136;2022-09-09T09:10:22;13.95;;;3.42;;
64199;SDS011;50516;52.272;5.136;2022-09-09T09:12:52;8.20;;;3.35;;
64199;SDS011;50516;52.272;5.136;2022-09-09T09:15:21;15.50;;;4.38;;
64199;SDS011;50516;52.272;5.136;2022-09-09T09:17:50;9.75;;;3.90;;
64199;SDS011;50516;52.272;5.136;2022-09-09T09:20:15;8.40;;;3.47;;
64199;SDS011;50516;52.272;5.136;2022-09-09T09:22:46;17.40;;;4.22;;
64199;SDS011;50516;52.272;5.136;2022-09-09T09:25:16;15.93;;;4.60;;
64199;SDS011;50516;52.272;5.136;2022-09-09T09:31:04;11.32;;;3.35;;
64199;SDS011;50516;52.272;5.136;2022-09-09T09:36:17;7.78;;;3.00;;
64199;SDS011;50516;52.272;5.136;2022-09-09T09:38:57;9.32;;;3.00;;
64199;SDS011;50516;52.272;5.136;2022-09-09T09:41:32;10.25;;;3.67;;
64199;SDS011;50516;52.272;5.136;2022-09-09T09:44:00;11.52;;;3.30;;
64199;SDS011;50516;52.272;5.136;2022-09-09T09:46:26;13.68;;;3.45;;
64199;SDS011;50516;52.272;5.136;2022-09-09T09:48:58;9.60;;;3.28;;
64199;SDS011;50516;52.272;5.136;2022-09-09T09:51:28;11.35;;;3.22;;
64199;SDS011;50516;52.272;5.136;2022-09-09T09:56:46;6.80;;;3.40;;
64199;SDS011;50516;52.272;5.136;2022-09-09T10:04:43;10.18;;;3.22;;
64199;SDS011;50516;52.272;5.136;2022-09-09T10:07:15;10.88;;;3.28;;
64199;SDS011;50516;52.272;5.136;2022-09-09T10:09:43;10.18;;;3.33;;
64199;SDS011;50516;52.272;5.136;2022-09-09T10:15:07;13.07;;;3.60;;
64199;SDS011;50516;52.272;5.136;2022-09-09T10:18:12;11.35;;;2.65;;
64199;SDS011;50516;52.272;5.136;2022-09-09T10:23:35;10.60;;;3.20;;
64199;SDS011;50516;52.272;5.136;2022-09-09T10:32:12;13.18;;;3.05;;
64199;SDS011;50516;52.272;5.136;2022-09-09T10:35:09;8.38;;;2.70;;
64199;SDS011;50516;52.272;5.136;2022-09-09T10:37:49;11.30;;;3.00;;
64199;SDS011;50516;52.272;5.136;2022-09-09T10:56:55;7.63;;;3.00;;
64199;SDS011;50516;52.272;5.136;2022-09-09T10:59:26;10.25;;;2.92;;
64199;SDS011;50516;52.272;5.136;2022-09-09T11:02:01;10.95;;;3.05;;
64199;SDS011;50516;52.272;5.136;2022-09-09T11:07:43;11.73;;;4.50;;
64199;SDS011;50516;52.272;5.136;2022-09-09T11:15:17;10.38;;;3.17;;
64199;SDS011;50516;52.272;5.136;2022-09-09T11:17:54;9.82;;;3.47;;
64199;SDS011;50516;52.272;5.136;2022-09-09T11:20:23;6.93;;;2.80;;
64199;SDS011;50516;52.272;5.136;2022-09-09T11:25:45;10.25;;;2.97;;
64199;SDS011;50516;52.272;5.136;2022-09-09T11:34:25;7.95;;;2.88;;
64199;SDS011;50516;52.272;5.136;2022-09-09T11:42:27;7.95;;;2.65;;
64199;SDS011;50516;52.272;5.136;2022-09-09T11:44:52;8.73;;;2.65;;
64199;SDS011;50516;52.272;5.136;2022-09-09T11:52:40;6.30;;;2.88;;
64199;SDS011;50516;52.272;5.136;2022-09-09T11:55:09;9.50;;;3.45;;
64199;SDS011;50516;52.272;5.136;2022-09-09T11:57:37;10.20;;;2.75;;
64199;SDS011;50516;52.272;5.136;2022-09-09T12:00:03;11.20;;;2.70;;
64199;SDS011;50516;52.272;5.136;2022-09-09T12:02:30;8.25;;;3.10;;
64199;SDS011;50516;52.272;5.136;2022-09-09T12:05:07;9.20;;;3.50;;
64199;SDS011;50516;52.272;5.136;2022-09-09T12:12:35;7.32;;;3.65;;
64199;SDS011;50516;52.272;5.136;2022-09-09T12:17:49;7.10;;;2.75;;
64199;SDS011;50516;52.272;5.136;2022-09-09T12:20:33;7.32;;;3.00;;
64199;SDS011;50516;52.272;5.136;2022-09-09T12:23:04;11.70;;;2.92;;
64199;SDS011;50516;52.272;5.136;2022-09-09T12:25:58;7.22;;;3.10;;
64199;SDS011;50516;52.272;5.136;2022-09-09T12:31:39;6.47;;;3.03;;
64199;SDS011;50516;52.272;5.136;2022-09-09T12:34:18;15.38;;;3.75;;
64199;SDS011;50516;52.272;5.136;2022-09-09T12:37:44;6.95;;;2.72;;
64199;SDS011;50516;52.272;5.136;2022-09-09T12:39:59;7.25;;;3.17;;
64199;SDS011;50516;52.272;5.136;2022-09-09T12:42:45;8.65;;;3.13;;
64199;SDS011;50516;52.272;5.136;2022-09-09T12:45:18;8.38;;;2.92;;
64199;SDS011;50516;52.272;5.136;2022-09-09T12:48:25;8.23;;;3.60;;
64199;SDS011;50516;52.272;5.136;2022-09-09T12:50:49;9.52;;;3.38;;
64199;SDS011;50516;52.272;5.136;2022-09-09T12:53:23;6.40;;;3.03;;
64199;SDS011;50516;52.272;5.136;2022-09-09T12:56:04;12.07;;;3.22;;
64199;SDS011;50516;52.272;5.136;2022-09-09T12:58:33;8.45;;;3.50;;
64199;SDS011;50516;52.272;5.136;2022-09-09T13:01:00;7.53;;;3.17;;
64199;SDS011;50516;52.272;5.136;2022-09-09T13:03:29;9.52;;;3.50;;
64199;SDS011;50516;52.272;5.136;2022-09-09T13:05:57;8.07;;;3.22;;
64199;SDS011;50516;52.272;5.136;2022-09-09T13:08:27;6.90;;;3.58;;
64199;SDS011;50516;52.272;5.136;2022-09-09T13:10:54;7.07;;;3.05;;
64199;SDS011;50516;52.272;5.136;2022-09-09T13:13:28;8.65;;;3.67;;
64199;SDS011;50516;52.272;5.136;2022-09-09T13:16:00;7.18;;;3.63;;
64199;SDS011;50516;52.272;5.136;2022-09-09T13:18:30;10.82;;;3.75;;
64199;SDS011;50516;52.272;5.136;2022-09-09T13:20:58;8.23;;;3.55;;
64199;SDS011;50516;52.272;5.136;2022-09-09T13:23:26;8.73;;;3.60;;
64199;SDS011;50516;52.272;5.136;2022-09-09T13:25:55;6.55;;;3.15;;
64199;SDS011;50516;52.272;5.136;2022-09-09T13:28:22;6.55;;;3.45;;
64199;SDS011;50516;52.272;5.136;2022-09-09T13:30:56;11.30;;;3.50;;
64199;SDS011;50516;52.272;5.136;2022-09-09T13:36:02;8.40;;;3.20;;
64199;SDS011;50516;52.272;5.136;2022-09-09T13:38:35;8.27;;;3.33;;
64199;SDS011;50516;52.272;5.136;2022-09-09T13:41:06;8.65;;;3.17;;
64199;SDS011;50516;52.272;5.136;2022-09-09T13:43:35;7.90;;;3.78;;
64199;SDS011;50516;52.272;5.136;2022-09-09T13:46:04;7.72;;;3.65;;
64199;SDS011;50516;52.272;5.136;2022-09-09T13:48:54;8.60;;;3.30;;
64199;SDS011;50516;52.272;5.136;2022-09-09T13:51:34;8.02;;;3.50;;
64199;SDS011;50516;52.272;5.136;2022-09-09T13:54:11;8.15;;;4.03;;
64199;SDS011;50516;52.272;5.136;2022-09-09T13:56:39;6.82;;;3.33;;
64199;SDS011;50516;52.272;5.136;2022-09-09T13:59:06;8.00;;;3.30;;
64199;SDS011;50516;52.272;5.136;2022-09-09T14:01:36;7.70;;;3.20;;
64199;SDS011;50516;52.272;5.136;2022-09-09T14:04:02;6.82;;;3.20;;
64199;SDS011;50516;52.272;5.136;2022-09-09T14:06:28;8.15;;;3.05;;
64199;SDS011;50516;52.272;5.136;2022-09-09T14:08:54;6.15;;;2.75;;
64199;SDS011;50516;52.272;5.136;2022-09-09T14:11:20;8.65;;;3.10;;
64199;SDS011;50516;52.272;5.136;2022-09-09T14:13:46;6.15;;;3.42;;
64199;SDS011;50516;52.272;5.136;2022-09-09T14:16:14;7.35;;;3.72;;
64199;SDS011;50516;52.272;5.136;2022-09-09T14:18:40;7.93;;;2.90;;
64199;SDS011;50516;52.272;5.136;2022-09-09T14:21:06;7.13;;;2.90;;
64199;SDS011;50516;52.272;5.136;2022-09-09T14:23:31;11.77;;;3.53;;
64199;SDS011;50516;52.272;5.136;2022-09-09T14:25:57;6.80;;;2.92;;
64199;SDS011;50516;52.272;5.136;2022-09-09T14:28:22;6.88;;;2.92;;
64199;SDS011;50516;52.272;5.136;2022-09-09T14:30:47;6.72;;;3.20;;
64199;SDS011;50516;52.272;5.136;2022-09-09T14:33:14;10.35;;;3.40;;
64199;SDS011;50516;52.272;5.136;2022-09-09T14:35:40;6.63;;;3.50;;
64199;SDS011;50516;52.272;5.136;2022-09-09T14:38:06;9.48;;;2.83;;
64199;SDS011;50516;52.272;5.136;2022-09-09T14:40:34;6.13;;;3.58;;
64199;SDS011;50516;52.272;5.136;2022-09-09T14:43:00;8.50;;;3.30;;
64199;SDS011;50516;52.272;5.136;2022-09-09T14:45:25;10.73;;;3.40;;
64199;SDS011;50516;52.272;5.136;2022-09-09T14:47:51;7.45;;;2.63;;
64199;SDS011;50516;52.272;5.136;2022-09-09T14:50:17;8.35;;;2.83;;
64199;SDS011;50516;52.272;5.136;2022-09-09T14:52:43;4.80;;;2.65;;
64199;SDS011;50516;52.272;5.136;2022-09-09T14:55:09;8.50;;;2.90;;
64199;SDS011;50516;52.272;5.136;2022-09-09T14:57:34;5.28;;;2.63;;
64199;SDS011;50516;52.272;5.136;2022-09-09T15:00:00;4.30;;;2.50;;
64199;SDS011;50516;52.272;5.136;2022-09-09T15:02:27;6.72;;;2.50;;
64199;SDS011;50516;52.272;5.136;2022-09-09T15:04:54;7.30;;;3.00;;
64199;SDS011;50516;52.272;5.136;2022-09-09T15:07:22;6.57;;;2.60;;
64199;SDS011;50516;52.272;5.136;2022-09-09T15:09:48;9.05;;;2.90;;
64199;SDS011;50516;52.272;5.136;2022-09-09T15:12:14;8.48;;;3.17;;
64199;SDS011;50516;52.272;5.136;2022-09-09T15:14:39;9.65;;;3.00;;
64199;SDS011;50516;52.272;5.136;2022-09-09T15:17:04;5.03;;;2.20;;
64199;SDS011;50516;52.272;5.136;2022-09-09T15:19:30;8.52;;;2.58;;
64199;SDS011;50516;52.272;5.136;2022-09-09T15:21:55;3.05;;;1.48;;
64199;SDS011;50516;52.272;5.136;2022-09-09T15:24:20;5.15;;;1.35;;
64199;SDS011;50516;52.272;5.136;2022-09-09T15:26:46;3.40;;;1.73;;
64199;SDS011;50516;52.272;5.136;2022-09-09T15:29:11;5.50;;;1.40;;
64199;SDS011;50516;52.272;5.136;2022-09-09T15:31:37;2.15;;;1.38;;
64199;SDS011;50516;52.272;5.136;2022-09-09T15:34:03;5.43;;;1.67;;
64199;SDS011;50516;52.272;5.136;2022-09-09T15:36:40;3.10;;;1.75;;
64199;SDS011;50516;52.272;5.136;2022-09-09T15:39:08;5.72;;;2.10;;
64199;SDS011;50516;52.272;5.136;2022-09-09T15:41:40;4.05;;;1.80;;
64199;SDS011;50516;52.272;5.136;2022-09-09T15:44:06;4.53;;;2.50;;
64199;SDS011;50516;52.272;5.136;2022-09-09T15:46:33;6.53;;;2.42;;
64199;SDS011;50516;52.272;5.136;2022-09-09T15:51:57;6.43;;;2.55;;
64199;SDS011;50516;52.272;5.136;2022-09-09T15:54:24;5.80;;;2.45;;
64199;SDS011;50516;52.272;5.136;2022-09-09T15:56:54;6.00;;;2.13;;
64199;SDS011;50516;52.272;5.136;2022-09-09T15:59:25;7.20;;;2.28;;
64199;SDS011;50516;52.272;5.136;2022-09-09T16:01:52;6.40;;;2.22;;
64199;SDS011;50516;52.272;5.136;2022-09-09T16:04:18;6.97;;;2.20;;
64199;SDS011;50516;52.272;5.136;2022-09-09T16:06:51;7.22;;;2.50;;
64199;SDS011;50516;52.272;5.136;2022-09-09T16:09:18;5.50;;;2.42;;
64199;SDS011;50516;52.272;5.136;2022-09-09T16:11:44;6.25;;;2.50;;
64199;SDS011;50516;52.272;5.136;2022-09-09T16:14:10;5.15;;;2.45;;
64199;SDS011;50516;52.272;5.136;2022-09-09T16:16:36;6.22;;;2.33;;
64199;SDS011;50516;52.272;5.136;2022-09-09T16:19:03;4.40;;;2.20;;
64199;SDS011;50516;52.272;5.136;2022-09-09T16:21:36;6.18;;;2.47;;
64199;SDS011;50516;52.272;5.136;2022-09-09T16:24:03;6.07;;;2.47;;
64199;SDS011;50516;52.272;5.136;2022-09-09T16:26:30;4.72;;;2.13;;
64199;SDS011;50516;52.272;5.136;2022-09-09T16:28:58;7.30;;;2.55;;
64199;SDS011;50516;52.272;5.136;2022-09-09T16:31:25;5.60;;;2.40;;
64199;SDS011;50516;52.272;5.136;2022-09-09T16:33:52;6.10;;;2.25;;
64199;SDS011;50516;52.272;5.136;2022-09-09T16:36:24;6.72;;;3.25;;
64199;SDS011;50516;52.272;5.136;2022-09-09T16:38:55;8.52;;;2.97;;
64199;SDS011;50516;52.272;5.136;2022-09-09T16:41:22;8.05;;;2.70;;
64199;SDS011;50516;52.272;5.136;2022-09-09T16:43:56;11.48;;;3.33;;
64199;SDS011;50516;52.272;5.136;2022-09-09T16:46:24;6.65;;;2.50;;
64199;SDS011;50516;52.272;5.136;2022-09-09T16:48:50;5.72;;;2.70;;
64199;SDS011;50516;52.272;5.136;2022-09-09T16:51:17;6.57;;;2.60;;
64199;SDS011;50516;52.272;5.136;2022-09-09T16:53:45;10.60;;;3.00;;
64199;SDS011;50516;52.272;5.136;2022-09-09T16:56:15;6.65;;;2.60;;
64199;SDS011;50516;52.272;5.136;2022-09-09T16:58:43;5.63;;;2.80;;
64199;SDS011;50516;52.272;5.136;2022-09-09T17:01:10;6.25;;;2.75;;
64199;SDS011;50516;52.272;5.136;2022-09-09T17:03:39;6.38;;;2.72;;
64199;SDS011;50516;52.272;5.136;2022-09-09T17:06:08;8.95;;;3.00;;
64199;SDS011;50516;52.272;5.136;2022-09-09T17:08:38;8.45;;;2.90;;
64199;SDS011;50516;52.272;5.136;2022-09-09T17:11:14;8.63;;;2.45;;
64199;SDS011;50516;52.272;5.136;2022-09-09T17:13:41;6.07;;;2.70;;
64199;SDS011;50516;52.272;5.136;2022-09-09T17:16:08;7.43;;;2.88;;
64199;SDS011;50516;52.272;5.136;2022-09-09T17:18:35;7.22;;;2.90;;
64199;SDS011;50516;52.272;5.136;2022-09-09T17:21:05;7.93;;;2.78;;
64199;SDS011;50516;52.272;5.136;2022-09-09T17:23:32;8.48;;;3.17;;
64199;SDS011;50516;52.272;5.136;2022-09-09T17:25:59;6.35;;;3.08;;
64199;SDS011;50516;52.272;5.136;2022-09-09T17:28:25;6.28;;;3.10;;